Bad Axe, MI (48413)

6:36 AM EST on February 11, 2016 (GMT -0500)
Thumb sunrise side | | Change Station
CLOSE
Current Station
Personal Weather Station
Location: Bad Axe, MI
Elevation: 758 ft
Nearby Weather Stations

Elev 758 ft 43.79 °N, 83.00 °W | Updated 13 minutes ago

Overcast
Overcast
8.1 °F
Feels Like -3 °F
N
6.8
Wind Variable Wind from NW

Today
High -- | Low -- °F
--% Chance of Precip.
Yesterday
High -- | Low -- °F
Precip. -- in
Pressure 30.07 in
Visibility 10.0 miles
Clouds Overcast 2700 ft
Windchill -3 °F
Dew Point 2 °F
Humidity 77%
Rainfall 0.00 in
Snow Depth Not available.
7:37 AM 5:55 PM
Waxing Crescent, 11% visible
METAR KBAX 111114Z AUTO 32012KT 10SM OVC027 M13/M16 A3007 RMK AO2 T11261165
Pressure 30.07 in
Visibility 10.0 miles
Clouds Overcast 2700 ft
Windchill -3 °F
Dew Point 2 °F
Humidity 77%
Rainfall 0.00 in
Snow Depth Not available.
7:37 AM 5:55 PM
Waxing Crescent, 11% visible
METAR KBAX 111114Z AUTO 32012KT 10SM OVC027 M13/M16 A3007 RMK AO2 T11261165

10-Day Weather Forecast

Almanac

Astronomy

Feb. 11, 2016 Rise Set
Actual Time
Civil Twilight
Nautical Twilight
Astronomical Twilight
Moon
Length of Visible Light
Length of Day
Tomorrow will be .
, % of the Moon is Illuminated

Today's Extremes

State Highs State Lows

Community

WunderPhotos

Upload Photos

1,892,030 photos uploaded!

WunderBlog® & News

Nearby

Air Quality

  Air Quality AQ Index Pollutant
Not available.

Snow Depth

Station Depth Elevation

Earthquake Activity

City Distance Mag. Time & Date
Minimum magnitude displayed is 2.5.

Coastal Water Temperatures

Place Temperature

Stations

Nearby Weather Stations

Station Location Temp. Windchill Dew Point Humidity Wind Precip. Elev Updated Type
                   

Watches & Warnings

There are currently no watches in effect.